High Island 179A, TX

2:28 PM CST on February 14, 2016 (GMT -0600)
Fish Village | | Change Station
CLOSE
Current Station
Personal Weather Station
Location: Galveston, TX
Elevation: 23 ft
Nearby Weather Stations

Elev 23 ft 29.32 °N, 94.77 °W | Updated 35 seconds ago

Clear
Clear
71.2 °F
Feels Like 75 °F
N
7.3
Wind Variable Wind from South

Today
High -- | Low -- °F
--% Chance of Precip.
Yesterday
High -- | Low -- °F
Precip. -- in
Pressure 29.98 in
Visibility 10.0 miles
Clouds Clear
Heat Index 75 °F
Dew Point 60 °F
Humidity 67%
Rainfall 0.00 in
Snow Depth Not available.
6:58 AM 6:06 PM
Waxing Crescent, 45% visible
METAR KGLS 141952Z 17014KT 10SM CLR 20/16 A2998 RMK AO2 SLP152 T02000161
Pressure 29.98 in
Visibility 10.0 miles
Clouds Clear
Heat Index 75 °F
Dew Point 60 °F
Humidity 67%
Rainfall 0.00 in
Snow Depth Not available.
6:58 AM 6:06 PM
Waxing Crescent, 45% visible
METAR KGLS 141952Z 17014KT 10SM CLR 20/16 A2998 RMK AO2 SLP152 T02000161

10-Day Weather Forecast

Almanac

Astronomy

Feb. 14, 2016 Rise Set
Actual Time
Civil Twilight
Nautical Twilight
Astronomical Twilight
Moon
Length of Visible Light
Length of Day
Tomorrow will be .
, % of the Moon is Illuminated

Today's Extremes

State Highs State Lows

Community

WunderPhotos

Upload Photos

1,892,885 photos uploaded!

WunderBlog® & News

Nearby

Air Quality

  Air Quality AQ Index Pollutant
Not available.

Snow Depth

Station Depth Elevation

Earthquake Activity

City Distance Mag. Time & Date
Minimum magnitude displayed is 2.5.

Coastal Water Temperatures

Place Temperature

Stations

Nearby Weather Stations

Station Location Temp. Windchill Dew Point Humidity Wind Precip. Elev Updated Type
                   

Watches & Warnings

There are currently no watches in effect.